Balintore, United Kingdom
Current Conditions -  °F | °C
As of 7:50 AM on Monday 24 Nov 2014 (Local Time) from EGQK Reporting Station
Overcast Overcast  
Wind Chill: 39°   Ceiling: 19000
Heat Index: 45°   Visibility: 6mi
Dew Point: 37°   Wind: 10mph
Humidity: 76%   Direction: 210°SSW
Pressure: 30.09"   Gusts: NA
Location:  57.76°N, 3.91°W
Report Text: EGQK 240750Z AUTO 21009KT 9999 SCT047/// OVC190/// 07/03 Q1019
Loading
Personal Weather Stations






























Interactive Weather Map New forecast layout! Learn more

10-Day Weather Forecast

Advertisements
Track Severe Weather on mobile